createdAt,value
2018-11-04T00:07:41.716Z,94.60
2018-11-04T00:17:46.658Z,93.70
2018-11-04T00:27:51.554Z,95.20
2018-11-04T00:37:56.390Z,94.50
2018-11-04T00:48:01.216Z,93.40
2018-11-04T00:58:06.036Z,95.00
2018-11-04T01:08:10.836Z,95.50
2018-11-04T01:18:15.641Z,94.70
2018-11-04T01:28:20.418Z,95.30
2018-11-04T01:38:25.175Z,94.20
2018-11-04T01:48:30.186Z,95.70
2018-11-04T01:58:34.996Z,95.30
2018-11-04T02:08:39.759Z,95.10
2018-11-04T02:18:44.447Z,94.60
2018-11-04T02:28:49.212Z,95.30
2018-11-04T02:38:53.971Z,95.60
2018-11-04T02:48:58.768Z,96.10
2018-11-04T02:59:03.566Z,95.90
2018-11-04T03:09:09.999Z,95.80
2018-11-04T03:19:14.772Z,95.90
2018-11-04T03:29:19.557Z,95.60
2018-11-04T03:39:24.227Z,95.70
2018-11-04T03:49:29.031Z,95.20
2018-11-04T03:59:33.838Z,95.90
2018-11-04T04:09:38.604Z,96.30
2018-11-04T04:19:43.342Z,94.70
2018-11-04T04:29:48.141Z,98.30
2018-11-04T04:39:52.940Z,96.00
2018-11-04T04:49:57.759Z,96.10
2018-11-04T05:00:02.493Z,96.40
2018-11-04T05:10:07.602Z,96.90
2018-11-04T05:20:12.334Z,96.20
2018-11-04T05:30:17.182Z,96.90
2018-11-04T05:40:21.899Z,96.90
2018-11-04T05:50:26.621Z,96.10
2018-11-04T06:00:31.322Z,96.60
2018-11-04T06:10:36.080Z,95.40
2018-11-04T06:20:40.870Z,96.60
2018-11-04T06:30:45.656Z,96.70
2018-11-04T06:40:50.410Z,96.10
2018-11-04T06:50:55.226Z,96.70
2018-11-04T07:00:59.983Z,96.10
2018-11-04T07:11:04.812Z,96.10
2018-11-04T07:21:09.684Z,95.70
2018-11-04T07:31:14.474Z,95.50
2018-11-04T07:41:19.819Z,94.90
2018-11-04T07:51:24.684Z,94.40
2018-11-04T08:01:29.554Z,93.40
2018-11-04T08:11:34.318Z,93.80
2018-11-04T08:21:39.115Z,93.10
2018-11-04T08:31:44.038Z,93.60
2018-11-04T08:41:49.037Z,92.40
2018-11-04T08:51:54.325Z,92.50
2018-11-04T09:01:59.234Z,92.70
2018-11-04T09:12:04.807Z,92.40
2018-11-04T09:22:10.068Z,92.20
2018-11-04T09:32:15.258Z,91.80
2018-11-04T09:42:20.349Z,90.90
2018-11-04T09:52:25.462Z,90.00
2018-11-04T10:02:30.446Z,88.70
2018-11-04T10:12:35.394Z,86.90
2018-11-04T10:22:40.684Z,84.20
2018-11-04T10:32:45.767Z,81.00
2018-11-04T10:42:50.620Z,76.10
2018-11-04T10:52:55.481Z,71.20
2018-11-04T11:03:00.294Z,67.00
2018-11-04T11:13:05.350Z,69.50
2018-11-04T11:23:10.296Z,74.50
2018-11-04T11:33:15.172Z,76.50
2018-11-04T11:43:20.025Z,78.20
2018-11-04T11:53:25.378Z,80.00
2018-11-04T12:03:30.284Z,81.00
2018-11-04T12:13:35.530Z,77.40
2018-11-04T12:23:41.874Z,71.60
2018-11-04T12:33:46.838Z,69.40
2018-11-04T12:43:51.873Z,54.00
2018-11-04T12:53:57.144Z,42.60
2018-11-04T13:04:02.157Z,40.50
2018-11-04T13:14:07.754Z,42.90
2018-11-04T13:24:12.702Z,46.20
2018-11-04T13:34:17.632Z,47.40
2018-11-04T13:44:22.534Z,39.60
2018-11-04T13:54:27.420Z,40.90
2018-11-04T14:04:32.860Z,44.30
2018-11-04T14:14:38.177Z,44.50
2018-11-04T14:24:43.504Z,48.20
2018-11-04T14:34:48.657Z,49.80
2018-11-04T14:44:53.926Z,46.80
2018-11-04T14:54:59.416Z,52.30
2018-11-04T15:05:04.615Z,62.90
2018-11-04T15:15:12.260Z,65.90
2018-11-04T15:25:18.987Z,68.80
2018-11-04T15:35:24.372Z,76.90
2018-11-04T15:45:29.810Z,81.90
2018-11-04T15:55:35.290Z,85.20
2018-11-04T16:05:40.658Z,87.30
2018-11-04T16:15:45.925Z,88.40
2018-11-04T16:25:50.882Z,89.40
2018-11-04T16:35:56.309Z,90.00
2018-11-04T16:46:01.724Z,90.20
2018-11-04T16:56:07.179Z,90.50
2018-11-04T17:06:12.120Z,90.70
2018-11-04T17:16:17.090Z,90.90
2018-11-04T17:26:22.195Z,91.40
2018-11-04T17:36:27.083Z,91.30
2018-11-04T17:46:32.163Z,91.70
2018-11-04T17:56:37.246Z,92.20
2018-11-04T18:06:42.376Z,91.20
2018-11-04T18:16:47.483Z,92.20
2018-11-04T18:26:52.435Z,93.10
2018-11-04T18:36:57.959Z,93.80
2018-11-04T18:47:03.054Z,93.40
2018-11-04T18:57:08.184Z,94.00
2018-11-04T19:07:13.282Z,95.30
2018-11-04T19:17:18.774Z,93.60
2018-11-04T19:27:23.845Z,94.10
2018-11-04T19:37:29.318Z,93.50
2018-11-04T19:47:34.339Z,93.30
2018-11-04T19:57:39.856Z,93.90
2018-11-04T20:07:45.437Z,94.20
2018-11-04T20:17:51.014Z,95.80
2018-11-04T20:27:56.214Z,95.00
2018-11-04T20:38:01.578Z,95.40
2018-11-04T20:48:12.253Z,94.80
2018-11-04T20:58:17.757Z,95.50
2018-11-04T21:08:22.896Z,94.50
2018-11-04T21:18:28.056Z,95.40
2018-11-04T21:28:33.221Z,95.30
2018-11-04T21:38:38.269Z,96.20
2018-11-04T21:48:43.968Z,95.90
2018-11-04T21:58:49.056Z,95.00
2018-11-04T22:08:54.205Z,99.60
2018-11-04T22:18:59.271Z,95.30
2018-11-04T22:29:04.873Z,94.90
2018-11-04T22:39:10.184Z,95.10
2018-11-04T22:49:15.229Z,95.40
2018-11-04T22:59:20.423Z,95.70
2018-11-04T23:09:25.438Z,95.30
2018-11-04T23:19:30.327Z,95.00
2018-11-04T23:29:35.325Z,95.10
2018-11-04T23:39:40.358Z,97.90
2018-11-04T23:49:45.251Z,97.40
2018-11-04T23:59:50.272Z,97.50
